Steinkjer, Norge

02:10:CEST den 22. september 2014 (GMT +0200)
Helgesmark/Byafossen | Change Station
CLOSE
Current Station
Personlig værstasjon
Location: Steinkjer, NORD-TRNDELAG
Høyde over havet: 328 ft
Nearby Weather Stations

H.o.h 328 ft 64.03 °N, 11.55 °E | Updated 3 seconds ago

Mostly Cloudy
For det meste skyet
40.1 °F
Feels Like 40 °F
N
1.1
Vind Variabel Vind from
Gusts 1.1 mph

I dag
High -- | Low -- °F
--% Chance of Precip.
I går
High -- | Low -- °F
Precip. -- tommer
6:56 AM 7:15 PM
Minkende sigd, 5% visible
Lufttrykk 30.12 tommer
Sikt 6.2 eng. mil
Skyet Sporadisk skyet 3500 ft
For det meste skyet 4000 ft
Nedkjølingseffekt 40 °F
Duggpunkt 32 °F
Fuktighet 71%
Regn 0.00 tommer
Snødybde Not available.
UV 0.0 av 12
Pollen Not available.
Luftkvalitet Not available.
Flu Activity Not available.
METAR ENVA 212350Z 33005KT 290V010 9999 SCT035 BKN040 08/03 Q1020 RMK WIND 670FT 33010KT

More Conditions Fewer Conditions

Lufttrykk 30.12 tommer
Sikt 6.2 eng. mil
Skyet Sporadisk skyet 3500 ft
For det meste skyet 4000 ft
Nedkjølingseffekt 40 °F
Duggpunkt 32 °F
Fuktighet 71%
Regn 0.00 tommer
Snødybde Not available.
UV 0.0 av 12
Pollen Not available.
Luftkvalitet Not available.
Flu Activity Not available.
METAR ENVA 212350Z 33005KT 290V010 9999 SCT035 BKN040 08/03 Q1020 RMK WIND 670FT 33010KT

More Conditions Fewer Conditions

10-Day Weather Forecast

Almanac

Astronomi

Sep. 22, 2014 Oppgang Nedgang
Virkelig tid 06:56 CEST 19:15 CEST
Tussmørke 06:08 CEST 20:03 CEST
Nautisk skumring 05:10 CEST 21:01 CEST
Astronomisk skumring 04:03 CEST 22:07 CEST
Månen 04:43 CEST 18:30 CEST
Lengde av synlig lys 13h 54m
Dagens lengde
12h 19m
Tomorrow will be 6m 23s shorter.
Minkende sigd, 5% of the Moon is Illuminated
Sep 21
Minkende sigd
Sep 24
Ny
Oct 1
Første kvarter
Oct 8
Fullmåne
Oct 15
Siste kvarter

Gårsdagens min/max

Country Highs Country Lows

Community

WunderPhotos

Upload Photos

1,755,310 photos uploaded!

WunderBlogs® & News

Nearby

Snødybde

Not available.

Earthquake Activity

By Distance Mag. Time & Date
No recent earthquake activity has been reported nearby.
Minimum magnitude displayed is 2.5.

Coastal Water Temperatures

Sted Temperatur
Ingen stasjoner raporterer

Nearby Weather Stations